TimeEDT,TemperatureF,Dew PointF,Humidity,Sea Level PressureIn,VisibilityMPH,Wind Direction,Wind SpeedMPH,Gust SpeedMPH,PrecipitationIn,Events,Conditions,WindDirDegrees,DateUTC
12:54 AM,57.0,48.0,72,30.15,10.0,Calm,Calm,-,N/A,,Partly Cloudy,0,2013-09-07 04:54:00
1:54 AM,55.9,48.0,75,30.14,10.0,Calm,Calm,-,N/A,,Partly Cloudy,0,2013-09-07 05:54:00
2:54 AM,54.0,48.0,80,30.13,10.0,Calm,Calm,-,N/A,,Partly Cloudy,0,2013-09-07 06:54:00
3:54 AM,53.1,48.0,83,30.13,10.0,Calm,Calm,-,N/A,,Scattered Clouds,0,2013-09-07 07:54:00
4:54 AM,52.0,48.0,86,30.13,10.0,Calm,Calm,-,N/A,,Mostly Cloudy,0,2013-09-07 08:54:00
5:54 AM,52.0,48.0,86,30.12,10.0,Calm,Calm,-,N/A,,Mostly Cloudy,0,2013-09-07 09:54:00
6:54 AM,52.0,48.0,86,30.12,10.0,West,3.5,-,N/A,,Mostly Cloudy,270,2013-09-07 10:54:00
7:54 AM,59.0,50.0,72,30.12,10.0,Calm,Calm,-,N/A,,Scattered Clouds,0,2013-09-07 11:54:00
8:54 AM,66.0,52.0,60,30.11,10.0,Calm,Calm,-,N/A,,Scattered Clouds,0,2013-09-07 12:54:00
9:54 AM,71.1,54.0,55,30.11,10.0,WSW,4.6,-,N/A,,Partly Cloudy,240,2013-09-07 13:54:00
10:54 AM,75.0,50.0,41,30.10,10.0,WSW,6.9,-,N/A,,Partly Cloudy,250,2013-09-07 14:54:00
11:54 AM,77.0,50.0,39,30.08,10.0,SW,4.6,-,N/A,,Scattered Clouds,220,2013-09-07 15:54:00
12:54 PM,80.1,51.1,36,30.05,10.0,Variable,6.9,-,N/A,,Scattered Clouds,0,2013-09-07 16:54:00
1:54 PM,80.1,50.0,35,30.03,10.0,Variable,5.8,-,N/A,,Scattered Clouds,0,2013-09-07 17:54:00
2:54 PM,81.0,50.0,34,29.99,10.0,Variable,3.5,-,N/A,,Scattered Clouds,0,2013-09-07 18:54:00
3:54 PM,82.0,50.0,33,29.97,10.0,WSW,5.8,-,N/A,,Mostly Cloudy,240,2013-09-07 19:54:00
4:54 PM,80.1,53.1,39,29.96,10.0,Variable,4.6,-,N/A,,Mostly Cloudy,0,2013-09-07 20:54:00
5:54 PM,80.1,55.0,42,29.95,10.0,WSW,6.9,-,N/A,,Mostly Cloudy,240,2013-09-07 21:54:00
6:54 PM,77.0,57.0,50,29.95,10.0,SW,5.8,-,N/A,,Mostly Cloudy,220,2013-09-07 22:54:00
7:54 PM,73.9,57.9,57,29.95,10.0,SW,4.6,-,N/A,,Mostly Cloudy,230,2013-09-07 23:54:00
8:54 PM,73.0,59.0,61,29.95,10.0,SSW,4.6,-,N/A,,Mostly Cloudy,200,2013-09-08 00:54:00
9:54 PM,71.1,60.1,68,29.95,10.0,Calm,Calm,-,N/A,,Mostly Cloudy,0,2013-09-08 01:54:00
10:54 PM,69.1,60.1,73,29.94,10.0,SSW,3.5,-,N/A,,Mostly Cloudy,210,2013-09-08 02:54:00
11:54 PM,66.9,60.1,79,29.94,10.0,SW,3.5,-,N/A,,Scattered Clouds,220,2013-09-08 03:54:00